Terminal Aerodrome Forecast
Issued by NWS

Home | Current Version | Previous Version | Text Only | Print | Product List | Glossary On
Versions: 1 2 3 4 5 6 7 8 9 10 11 12 13 14 15 16 17 18 19 20 21 22
000
FTUS44 KTSA 190600 AAA
TAFXNA
TAF AMD
KXNA 190658Z 1907/2006 22003KT P6SM FEW050 SCT100
      TEMPO 1908/1910 5SM -TSRA BR BKN035CB
     FM191000 00000KT P6SM BKN050
     FM191900 24006KT P6SM VCTS BKN025CB
      TEMPO 1920/1924 2SM -TSRA BR BKN025CB
     FM200000 30012G22KT P6SM BKN050=

USA.gov is the U.S. government's official web portal to all federal, state and local government web resources and services.